sensor_id;sensor_type;location;lat;lon;timestamp;P1;durP1;ratioP1;P2;durP2;ratioP2
55931;SDS011;41837;55.700;37.984;2022-10-15T00:00:35;18.15;;;7.18;;
55931;SDS011;41837;55.700;37.984;2022-10-15T00:03:04;24.65;;;9.48;;
55931;SDS011;41837;55.700;37.984;2022-10-15T00:05:30;23.80;;;10.35;;
55931;SDS011;41837;55.700;37.984;2022-10-15T00:07:56;32.80;;;12.27;;
55931;SDS011;41837;55.700;37.984;2022-10-15T00:10:22;34.45;;;13.15;;
55931;SDS011;41837;55.700;37.984;2022-10-15T00:12:47;32.13;;;14.07;;
55931;SDS011;41837;55.700;37.984;2022-10-15T00:15:14;32.33;;;16.02;;
55931;SDS011;41837;55.700;37.984;2022-10-15T00:17:42;34.28;;;15.32;;
55931;SDS011;41837;55.700;37.984;2022-10-15T00:20:09;30.27;;;13.98;;
55931;SDS011;41837;55.700;37.984;2022-10-15T00:22:35;33.58;;;14.05;;
55931;SDS011;41837;55.700;37.984;2022-10-15T00:25:02;28.25;;;13.52;;
55931;SDS011;41837;55.700;37.984;2022-10-15T00:27:29;32.58;;;13.50;;
55931;SDS011;41837;55.700;37.984;2022-10-15T00:29:55;34.53;;;13.63;;
55931;SDS011;41837;55.700;37.984;2022-10-15T00:32:23;32.95;;;13.45;;
55931;SDS011;41837;55.700;37.984;2022-10-15T00:34:49;38.65;;;14.68;;
55931;SDS011;41837;55.700;37.984;2022-10-15T00:37:15;31.02;;;15.30;;
55931;SDS011;41837;55.700;37.984;2022-10-15T00:39:42;32.35;;;17.80;;
55931;SDS011;41837;55.700;37.984;2022-10-15T00:42:09;45.20;;;18.85;;
55931;SDS011;41837;55.700;37.984;2022-10-15T00:44:55;37.95;;;20.95;;
55931;SDS011;41837;55.700;37.984;2022-10-15T00:52:29;40.85;;;20.30;;
55931;SDS011;41837;55.700;37.984;2022-10-15T00:55:07;43.33;;;20.25;;
55931;SDS011;41837;55.700;37.984;2022-10-15T00:57:36;39.90;;;19.58;;
55931;SDS011;41837;55.700;37.984;2022-10-15T01:00:05;36.03;;;17.35;;
55931;SDS011;41837;55.700;37.984;2022-10-15T01:02:33;38.22;;;18.42;;
55931;SDS011;41837;55.700;37.984;2022-10-15T01:04:59;34.13;;;17.58;;
55931;SDS011;41837;55.700;37.984;2022-10-15T01:07:25;38.33;;;17.52;;
55931;SDS011;41837;55.700;37.984;2022-10-15T01:09:51;35.90;;;16.50;;
55931;SDS011;41837;55.700;37.984;2022-10-15T01:18:02;32.35;;;15.75;;
55931;SDS011;41837;55.700;37.984;2022-10-15T01:30:46;48.95;;;19.25;;
55931;SDS011;41837;55.700;37.984;2022-10-15T01:36:15;40.50;;;17.63;;
55931;SDS011;41837;55.700;37.984;2022-10-15T01:43:58;37.38;;;17.17;;
55931;SDS011;41837;55.700;37.984;2022-10-15T01:46:45;42.72;;;17.60;;
55931;SDS011;41837;55.700;37.984;2022-10-15T01:49:19;38.97;;;16.92;;
55931;SDS011;41837;55.700;37.984;2022-10-15T01:51:46;37.22;;;15.30;;
55931;SDS011;41837;55.700;37.984;2022-10-15T01:54:13;47.65;;;16.13;;
55931;SDS011;41837;55.700;37.984;2022-10-15T01:56:40;38.95;;;14.65;;
55931;SDS011;41837;55.700;37.984;2022-10-15T01:59:12;41.10;;;16.17;;
55931;SDS011;41837;55.700;37.984;2022-10-15T02:01:40;37.83;;;13.85;;
55931;SDS011;41837;55.700;37.984;2022-10-15T02:04:16;37.97;;;14.45;;
55931;SDS011;41837;55.700;37.984;2022-10-15T02:06:44;31.73;;;12.82;;
55931;SDS011;41837;55.700;37.984;2022-10-15T02:09:14;34.55;;;11.15;;
55931;SDS011;41837;55.700;37.984;2022-10-15T02:11:46;27.90;;;10.52;;
55931;SDS011;41837;55.700;37.984;2022-10-15T02:14:18;29.95;;;11.70;;
55931;SDS011;41837;55.700;37.984;2022-10-15T02:16:51;35.88;;;11.75;;
55931;SDS011;41837;55.700;37.984;2022-10-15T02:19:20;28.35;;;12.48;;
55931;SDS011;41837;55.700;37.984;2022-10-15T02:24:24;31.48;;;11.60;;
55931;SDS011;41837;55.700;37.984;2022-10-15T02:26:53;38.37;;;11.63;;
55931;SDS011;41837;55.700;37.984;2022-10-15T02:29:21;33.10;;;11.23;;
55931;SDS011;41837;55.700;37.984;2022-10-15T02:31:48;27.92;;;11.77;;
55931;SDS011;41837;55.700;37.984;2022-10-15T02:34:16;26.70;;;12.38;;
55931;SDS011;41837;55.700;37.984;2022-10-15T02:36:43;42.63;;;12.85;;
55931;SDS011;41837;55.700;37.984;2022-10-15T02:39:10;32.97;;;12.20;;
55931;SDS011;41837;55.700;37.984;2022-10-15T02:41:38;39.03;;;13.15;;
55931;SDS011;41837;55.700;37.984;2022-10-15T02:44:08;44.78;;;15.07;;
55931;SDS011;41837;55.700;37.984;2022-10-15T02:46:35;37.90;;;13.75;;
55931;SDS011;41837;55.700;37.984;2022-10-15T02:49:00;48.28;;;14.02;;
55931;SDS011;41837;55.700;37.984;2022-10-15T02:51:30;35.05;;;14.98;;
55931;SDS011;41837;55.700;37.984;2022-10-15T02:53:57;39.90;;;13.27;;
55931;SDS011;41837;55.700;37.984;2022-10-15T02:56:23;43.08;;;14.77;;
55931;SDS011;41837;55.700;37.984;2022-10-15T02:58:49;30.58;;;11.63;;
55931;SDS011;41837;55.700;37.984;2022-10-15T03:01:16;34.47;;;12.40;;
55931;SDS011;41837;55.700;37.984;2022-10-15T03:03:42;49.28;;;14.80;;
55931;SDS011;41837;55.700;37.984;2022-10-15T03:06:08;37.85;;;12.23;;
55931;SDS011;41837;55.700;37.984;2022-10-15T03:08:34;32.90;;;12.43;;
55931;SDS011;41837;55.700;37.984;2022-10-15T03:11:02;48.75;;;13.18;;
55931;SDS011;41837;55.700;37.984;2022-10-15T03:13:28;37.78;;;12.43;;
55931;SDS011;41837;55.700;37.984;2022-10-15T03:15:54;36.53;;;12.77;;
55931;SDS011;41837;55.700;37.984;2022-10-15T03:18:21;27.73;;;11.65;;
55931;SDS011;41837;55.700;37.984;2022-10-15T03:20:57;30.58;;;12.32;;
55931;SDS011;41837;55.700;37.984;2022-10-15T03:23:23;27.70;;;12.15;;
55931;SDS011;41837;55.700;37.984;2022-10-15T03:25:57;30.83;;;12.05;;
55931;SDS011;41837;55.700;37.984;2022-10-15T03:28:24;27.52;;;11.85;;
55931;SDS011;41837;55.700;37.984;2022-10-15T03:30:50;29.15;;;9.95;;
55931;SDS011;41837;55.700;37.984;2022-10-15T03:33:17;27.65;;;10.88;;
55931;SDS011;41837;55.700;37.984;2022-10-15T03:35:43;28.95;;;15.35;;
55931;SDS011;41837;55.700;37.984;2022-10-15T03:38:10;29.65;;;12.90;;
55931;SDS011;41837;55.700;37.984;2022-10-15T03:40:36;31.92;;;19.42;;
55931;SDS011;41837;55.700;37.984;2022-10-15T03:43:27;53.42;;;27.23;;
55931;SDS011;41837;55.700;37.984;2022-10-15T03:45:54;37.88;;;21.70;;
55931;SDS011;41837;55.700;37.984;2022-10-15T03:48:22;47.38;;;22.05;;
55931;SDS011;41837;55.700;37.984;2022-10-15T03:50:48;30.95;;;21.95;;
55931;SDS011;41837;55.700;37.984;2022-10-15T03:53:14;39.53;;;18.90;;
55931;SDS011;41837;55.700;37.984;2022-10-15T03:55:40;35.50;;;18.80;;
55931;SDS011;41837;55.700;37.984;2022-10-15T03:58:07;35.38;;;17.08;;
55931;SDS011;41837;55.700;37.984;2022-10-15T04:00:42;33.70;;;15.63;;
55931;SDS011;41837;55.700;37.984;2022-10-15T04:03:09;26.10;;;15.30;;
55931;SDS011;41837;55.700;37.984;2022-10-15T04:05:35;28.15;;;14.38;;
55931;SDS011;41837;55.700;37.984;2022-10-15T04:08:05;35.88;;;14.07;;
55931;SDS011;41837;55.700;37.984;2022-10-15T04:10:34;29.90;;;13.77;;
55931;SDS011;41837;55.700;37.984;2022-10-15T04:13:01;34.33;;;11.93;;
55931;SDS011;41837;55.700;37.984;2022-10-15T04:15:27;36.97;;;12.70;;
55931;SDS011;41837;55.700;37.984;2022-10-15T04:17:59;33.10;;;12.40;;
55931;SDS011;41837;55.700;37.984;2022-10-15T04:20:27;44.53;;;13.13;;
55931;SDS011;41837;55.700;37.984;2022-10-15T04:22:59;36.25;;;12.80;;
55931;SDS011;41837;55.700;37.984;2022-10-15T04:25:26;36.10;;;12.05;;
55931;SDS011;41837;55.700;37.984;2022-10-15T04:27:55;31.83;;;12.70;;
55931;SDS011;41837;55.700;37.984;2022-10-15T04:30:21;27.00;;;10.70;;
55931;SDS011;41837;55.700;37.984;2022-10-15T04:32:56;28.27;;;10.27;;
55931;SDS011;41837;55.700;37.984;2022-10-15T04:35:23;34.60;;;12.48;;
55931;SDS011;41837;55.700;37.984;2022-10-15T04:38:00;38.85;;;13.45;;
55931;SDS011;41837;55.700;37.984;2022-10-15T04:40:32;36.90;;;12.05;;
55931;SDS011;41837;55.700;37.984;2022-10-15T04:42:59;35.80;;;13.00;;
55931;SDS011;41837;55.700;37.984;2022-10-15T04:45:25;41.13;;;13.13;;
55931;SDS011;41837;55.700;37.984;2022-10-15T04:47:52;40.17;;;12.80;;
55931;SDS011;41837;55.700;37.984;2022-10-15T04:50:17;39.90;;;13.07;;
55931;SDS011;41837;55.700;37.984;2022-10-15T04:53:20;38.22;;;13.95;;
55931;SDS011;41837;55.700;37.984;2022-10-15T04:55:50;31.02;;;12.45;;
55931;SDS011;41837;55.700;37.984;2022-10-15T04:58:15;47.40;;;13.20;;
55931;SDS011;41837;55.700;37.984;2022-10-15T05:00:42;35.72;;;13.15;;
55931;SDS011;41837;55.700;37.984;2022-10-15T05:03:30;40.70;;;12.63;;
55931;SDS011;41837;55.700;37.984;2022-10-15T05:06:02;42.88;;;12.98;;
55931;SDS011;41837;55.700;37.984;2022-10-15T05:08:29;38.90;;;12.25;;
55931;SDS011;41837;55.700;37.984;2022-10-15T05:11:10;33.67;;;12.13;;
55931;SDS011;41837;55.700;37.984;2022-10-15T05:13:37;49.60;;;13.20;;
55931;SDS011;41837;55.700;37.984;2022-10-15T05:18:36;34.53;;;11.60;;
55931;SDS011;41837;55.700;37.984;2022-10-15T05:21:03;39.75;;;11.23;;
55931;SDS011;41837;55.700;37.984;2022-10-15T05:23:30;34.75;;;10.75;;
55931;SDS011;41837;55.700;37.984;2022-10-15T05:26:10;33.20;;;10.77;;
55931;SDS011;41837;55.700;37.984;2022-10-15T05:28:37;32.28;;;11.77;;
55931;SDS011;41837;55.700;37.984;2022-10-15T05:31:07;31.17;;;11.45;;
55931;SDS011;41837;55.700;37.984;2022-10-15T05:33:34;35.45;;;12.90;;
55931;SDS011;41837;55.700;37.984;2022-10-15T05:36:33;37.25;;;12.63;;
55931;SDS011;41837;55.700;37.984;2022-10-15T05:38:57;29.05;;;11.77;;
55931;SDS011;41837;55.700;37.984;2022-10-15T05:41:25;41.40;;;11.95;;
55931;SDS011;41837;55.700;37.984;2022-10-15T05:43:53;32.83;;;11.23;;
55931;SDS011;41837;55.700;37.984;2022-10-15T05:46:23;37.28;;;11.55;;
55931;SDS011;41837;55.700;37.984;2022-10-15T05:48:51;30.15;;;11.20;;
55931;SDS011;41837;55.700;37.984;2022-10-15T05:51:18;31.38;;;11.65;;
55931;SDS011;41837;55.700;37.984;2022-10-15T05:53:45;26.45;;;11.15;;
55931;SDS011;41837;55.700;37.984;2022-10-15T05:56:14;31.02;;;11.23;;
55931;SDS011;41837;55.700;37.984;2022-10-15T05:58:41;24.83;;;11.20;;
55931;SDS011;41837;55.700;37.984;2022-10-15T06:01:08;32.92;;;11.05;;
55931;SDS011;41837;55.700;37.984;2022-10-15T06:03:37;43.50;;;12.52;;
55931;SDS011;41837;55.700;37.984;2022-10-15T06:06:03;31.73;;;12.93;;
55931;SDS011;41837;55.700;37.984;2022-10-15T06:08:34;34.22;;;13.02;;
55931;SDS011;41837;55.700;37.984;2022-10-15T06:11:03;28.27;;;12.52;;
55931;SDS011;41837;55.700;37.984;2022-10-15T06:13:29;31.58;;;13.43;;
55931;SDS011;41837;55.700;37.984;2022-10-15T06:15:55;37.55;;;13.68;;
55931;SDS011;41837;55.700;37.984;2022-10-15T06:18:20;28.42;;;13.20;;
55931;SDS011;41837;55.700;37.984;2022-10-15T06:20:50;27.90;;;14.45;;
55931;SDS011;41837;55.700;37.984;2022-10-15T06:23:16;37.72;;;15.02;;
55931;SDS011;41837;55.700;37.984;2022-10-15T06:25:42;40.70;;;14.77;;
55931;SDS011;41837;55.700;37.984;2022-10-15T06:28:08;37.03;;;14.95;;
55931;SDS011;41837;55.700;37.984;2022-10-15T06:30:43;33.80;;;14.95;;
55931;SDS011;41837;55.700;37.984;2022-10-15T06:33:09;37.58;;;15.55;;
55931;SDS011;41837;55.700;37.984;2022-10-15T06:35:35;46.92;;;15.27;;
55931;SDS011;41837;55.700;37.984;2022-10-15T06:38:01;30.40;;;15.07;;
55931;SDS011;41837;55.700;37.984;2022-10-15T06:40:27;34.00;;;15.02;;
55931;SDS011;41837;55.700;37.984;2022-10-15T06:42:54;48.10;;;15.65;;
55931;SDS011;41837;55.700;37.984;2022-10-15T06:45:19;41.95;;;14.07;;
55931;SDS011;41837;55.700;37.984;2022-10-15T06:47:45;46.70;;;12.90;;
55931;SDS011;41837;55.700;37.984;2022-10-15T06:50:11;32.67;;;14.20;;
55931;SDS011;41837;55.700;37.984;2022-10-15T06:52:38;32.42;;;11.48;;
55931;SDS011;41837;55.700;37.984;2022-10-15T06:55:03;37.53;;;11.48;;
55931;SDS011;41837;55.700;37.984;2022-10-15T06:57:30;25.88;;;10.48;;
55931;SDS011;41837;55.700;37.984;2022-10-15T06:59:55;32.47;;;11.88;;
55931;SDS011;41837;55.700;37.984;2022-10-15T07:02:22;38.70;;;11.60;;
55931;SDS011;41837;55.700;37.984;2022-10-15T07:04:49;32.30;;;10.88;;
55931;SDS011;41837;55.700;37.984;2022-10-15T07:07:19;32.10;;;10.25;;
55931;SDS011;41837;55.700;37.984;2022-10-15T07:09:45;27.10;;;10.43;;
55931;SDS011;41837;55.700;37.984;2022-10-15T07:12:12;34.83;;;11.80;;
55931;SDS011;41837;55.700;37.984;2022-10-15T07:14:38;27.65;;;11.70;;
55931;SDS011;41837;55.700;37.984;2022-10-15T07:17:04;33.95;;;11.85;;
55931;SDS011;41837;55.700;37.984;2022-10-15T07:19:30;32.78;;;11.45;;
55931;SDS011;41837;55.700;37.984;2022-10-15T07:21:56;24.35;;;10.98;;
55931;SDS011;41837;55.700;37.984;2022-10-15T07:24:22;22.90;;;11.25;;
55931;SDS011;41837;55.700;37.984;2022-10-15T07:26:49;32.70;;;12.40;;
55931;SDS011;41837;55.700;37.984;2022-10-15T07:29:15;37.33;;;13.57;;
55931;SDS011;41837;55.700;37.984;2022-10-15T07:31:48;39.72;;;16.33;;
55931;SDS011;41837;55.700;37.984;2022-10-15T07:34:17;42.80;;;14.40;;
55931;SDS011;41837;55.700;37.984;2022-10-15T07:36:43;30.88;;;11.55;;
55931;SDS011;41837;55.700;37.984;2022-10-15T07:39:09;30.67;;;11.65;;
55931;SDS011;41837;55.700;37.984;2022-10-15T07:41:35;26.58;;;12.05;;
55931;SDS011;41837;55.700;37.984;2022-10-15T07:44:01;48.35;;;14.35;;
55931;SDS011;41837;55.700;37.984;2022-10-15T07:46:28;46.50;;;17.02;;
55931;SDS011;41837;55.700;37.984;2022-10-15T07:48:54;59.65;;;15.93;;
55931;SDS011;41837;55.700;37.984;2022-10-15T07:51:20;37.10;;;10.43;;
55931;SDS011;41837;55.700;37.984;2022-10-15T07:53:46;34.13;;;11.25;;
55931;SDS011;41837;55.700;37.984;2022-10-15T07:56:13;24.30;;;9.90;;
55931;SDS011;41837;55.700;37.984;2022-10-15T07:58:39;21.23;;;9.95;;
55931;SDS011;41837;55.700;37.984;2022-10-15T08:01:06;21.08;;;10.48;;
55931;SDS011;41837;55.700;37.984;2022-10-15T08:03:33;24.40;;;9.68;;
55931;SDS011;41837;55.700;37.984;2022-10-15T08:06:00;26.23;;;10.23;;
55931;SDS011;41837;55.700;37.984;2022-10-15T08:08:27;28.63;;;9.13;;
55931;SDS011;41837;55.700;37.984;2022-10-15T08:10:53;26.83;;;8.95;;
55931;SDS011;41837;55.700;37.984;2022-10-15T08:13:19;32.13;;;9.88;;
55931;SDS011;41837;55.700;37.984;2022-10-15T08:15:49;27.90;;;8.85;;
55931;SDS011;41837;55.700;37.984;2022-10-15T08:18:15;34.42;;;9.98;;
55931;SDS011;41837;55.700;37.984;2022-10-15T08:20:41;22.77;;;8.45;;
55931;SDS011;41837;55.700;37.984;2022-10-15T08:23:13;28.08;;;9.65;;
55931;SDS011;41837;55.700;37.984;2022-10-15T08:25:40;34.72;;;9.93;;
55931;SDS011;41837;55.700;37.984;2022-10-15T08:28:06;24.27;;;9.27;;
55931;SDS011;41837;55.700;37.984;2022-10-15T08:30:35;21.67;;;8.70;;
55931;SDS011;41837;55.700;37.984;2022-10-15T08:33:07;33.20;;;9.50;;
55931;SDS011;41837;55.700;37.984;2022-10-15T08:35:34;32.92;;;9.52;;
55931;SDS011;41837;55.700;37.984;2022-10-15T08:38:03;21.20;;;8.82;;
55931;SDS011;41837;55.700;37.984;2022-10-15T08:40:31;19.83;;;8.85;;
55931;SDS011;41837;55.700;37.984;2022-10-15T08:42:59;20.27;;;8.73;;
55931;SDS011;41837;55.700;37.984;2022-10-15T08:45:30;17.85;;;8.57;;
55931;SDS011;41837;55.700;37.984;2022-10-15T08:48:01;19.85;;;8.27;;
55931;SDS011;41837;55.700;37.984;2022-10-15T08:50:42;17.83;;;7.57;;
55931;SDS011;41837;55.700;37.984;2022-10-15T08:53:14;15.32;;;7.78;;
55931;SDS011;41837;55.700;37.984;2022-10-15T08:55:47;21.00;;;7.78;;
55931;SDS011;41837;55.700;37.984;2022-10-15T08:58:16;17.90;;;7.38;;
55931;SDS011;41837;55.700;37.984;2022-10-15T09:00:52;18.80;;;7.43;;
55931;SDS011;41837;55.700;37.984;2022-10-15T09:08:49;19.52;;;7.10;;
55931;SDS011;41837;55.700;37.984;2022-10-15T09:11:35;24.02;;;6.78;;
55931;SDS011;41837;55.700;37.984;2022-10-15T09:14:03;23.92;;;7.70;;
55931;SDS011;41837;55.700;37.984;2022-10-15T09:16:34;22.02;;;8.98;;
55931;SDS011;41837;55.700;37.984;2022-10-15T09:19:03;19.88;;;8.50;;
55931;SDS011;41837;55.700;37.984;2022-10-15T09:21:31;21.70;;;8.30;;
55931;SDS011;41837;55.700;37.984;2022-10-15T09:23:59;16.00;;;8.07;;
55931;SDS011;41837;55.700;37.984;2022-10-15T09:26:37;21.40;;;9.40;;
55931;SDS011;41837;55.700;37.984;2022-10-15T09:31:39;25.92;;;9.85;;
55931;SDS011;41837;55.700;37.984;2022-10-15T09:34:18;27.23;;;10.27;;
55931;SDS011;41837;55.700;37.984;2022-10-15T09:36:51;21.73;;;9.48;;
55931;SDS011;41837;55.700;37.984;2022-10-15T09:44:35;22.33;;;10.02;;
55931;SDS011;41837;55.700;37.984;2022-10-15T09:47:02;26.42;;;9.93;;
55931;SDS011;41837;55.700;37.984;2022-10-15T09:49:40;19.35;;;7.95;;
55931;SDS011;41837;55.700;37.984;2022-10-15T09:57:13;27.60;;;8.77;;
55931;SDS011;41837;55.700;37.984;2022-10-15T09:59:50;25.52;;;8.35;;
55931;SDS011;41837;55.700;37.984;2022-10-15T10:02:17;21.80;;;8.20;;
55931;SDS011;41837;55.700;37.984;2022-10-15T10:04:44;18.90;;;7.63;;
55931;SDS011;41837;55.700;37.984;2022-10-15T10:09:56;22.92;;;7.93;;
55931;SDS011;41837;55.700;37.984;2022-10-15T10:12:29;17.70;;;8.25;;
55931;SDS011;41837;55.700;37.984;2022-10-15T10:17:25;17.67;;;7.82;;
55931;SDS011;41837;55.700;37.984;2022-10-15T10:22:52;18.92;;;7.93;;
55931;SDS011;41837;55.700;37.984;2022-10-15T10:25:23;16.75;;;8.50;;
55931;SDS011;41837;55.700;37.984;2022-10-15T10:28:04;18.10;;;8.50;;
55931;SDS011;41837;55.700;37.984;2022-10-15T10:30:35;18.80;;;8.45;;
55931;SDS011;41837;55.700;37.984;2022-10-15T10:33:03;24.42;;;9.02;;
55931;SDS011;41837;55.700;37.984;2022-10-15T10:35:42;20.33;;;9.25;;
55931;SDS011;41837;55.700;37.984;2022-10-15T10:38:19;23.02;;;9.45;;
55931;SDS011;41837;55.700;37.984;2022-10-15T10:40:50;23.08;;;8.90;;
55931;SDS011;41837;55.700;37.984;2022-10-15T10:45:53;29.45;;;12.48;;
55931;SDS011;41837;55.700;37.984;2022-10-15T10:53:38;21.40;;;8.63;;
55931;SDS011;41837;55.700;37.984;2022-10-15T10:56:09;25.25;;;10.18;;
55931;SDS011;41837;55.700;37.984;2022-10-15T10:58:38;26.35;;;10.23;;
55931;SDS011;41837;55.700;37.984;2022-10-15T11:01:05;28.60;;;12.45;;
55931;SDS011;41837;55.700;37.984;2022-10-15T11:03:33;27.30;;;12.00;;
55931;SDS011;41837;55.700;37.984;2022-10-15T11:06:03;33.03;;;11.50;;
55931;SDS011;41837;55.700;37.984;2022-10-15T11:08:40;29.48;;;10.90;;
55931;SDS011;41837;55.700;37.984;2022-10-15T11:11:12;27.42;;;10.10;;
55931;SDS011;41837;55.700;37.984;2022-10-15T11:13:44;24.33;;;9.32;;
55931;SDS011;41837;55.700;37.984;2022-10-15T11:16:21;23.85;;;8.70;;
55931;SDS011;41837;55.700;37.984;2022-10-15T11:18:55;21.52;;;8.52;;
55931;SDS011;41837;55.700;37.984;2022-10-15T11:21:43;19.45;;;7.65;;
55931;SDS011;41837;55.700;37.984;2022-10-15T11:24:19;18.00;;;8.25;;
55931;SDS011;41837;55.700;37.984;2022-10-15T11:26:54;24.15;;;8.02;;
55931;SDS011;41837;55.700;37.984;2022-10-15T11:29:38;16.20;;;8.07;;
55931;SDS011;41837;55.700;37.984;2022-10-15T11:40:20;18.95;;;8.57;;
55931;SDS011;41837;55.700;37.984;2022-10-15T11:42:58;17.15;;;8.73;;
55931;SDS011;41837;55.700;37.984;2022-10-15T11:50:47;18.50;;;9.05;;
55931;SDS011;41837;55.700;37.984;2022-10-15T12:00:55;20.02;;;10.20;;
55931;SDS011;41837;55.700;37.984;2022-10-15T12:03:23;20.00;;;9.63;;
55931;SDS011;41837;55.700;37.984;2022-10-15T12:05:54;26.27;;;10.75;;
55931;SDS011;41837;55.700;37.984;2022-10-15T12:08:25;23.35;;;9.35;;
55931;SDS011;41837;55.700;37.984;2022-10-15T12:16:24;26.65;;;10.77;;
55931;SDS011;41837;55.700;37.984;2022-10-15T12:18:54;21.90;;;10.00;;
55931;SDS011;41837;55.700;37.984;2022-10-15T12:24:04;20.30;;;9.98;;
55931;SDS011;41837;55.700;37.984;2022-10-15T12:26:35;34.95;;;19.95;;
55931;SDS011;41837;55.700;37.984;2022-10-15T12:29:03;39.40;;;20.15;;
55931;SDS011;41837;55.700;37.984;2022-10-15T12:31:43;41.85;;;22.85;;
55931;SDS011;41837;55.700;37.984;2022-10-15T12:36:59;33.80;;;10.73;;
55931;SDS011;41837;55.700;37.984;2022-10-15T12:39:26;23.77;;;9.57;;
55931;SDS011;41837;55.700;37.984;2022-10-15T12:41:52;22.80;;;10.75;;
55931;SDS011;41837;55.700;37.984;2022-10-15T12:44:31;23.52;;;9.98;;
55931;SDS011;41837;55.700;37.984;2022-10-15T12:46:58;24.95;;;11.05;;
55931;SDS011;41837;55.700;37.984;2022-10-15T12:51:51;29.40;;;10.15;;
55931;SDS011;41837;55.700;37.984;2022-10-15T12:57:00;30.73;;;12.07;;
55931;SDS011;41837;55.700;37.984;2022-10-15T12:59:30;32.50;;;13.20;;
55931;SDS011;41837;55.700;37.984;2022-10-15T13:05:01;38.72;;;17.67;;
55931;SDS011;41837;55.700;37.984;2022-10-15T13:07:28;48.20;;;19.48;;
55931;SDS011;41837;55.700;37.984;2022-10-15T13:09:55;46.35;;;18.02;;
55931;SDS011;41837;55.700;37.984;2022-10-15T13:12:24;56.78;;;21.27;;
55931;SDS011;41837;55.700;37.984;2022-10-15T13:14:52;47.33;;;22.60;;
55931;SDS011;41837;55.700;37.984;2022-10-15T13:17:20;44.10;;;17.10;;
55931;SDS011;41837;55.700;37.984;2022-10-15T13:22:23;33.78;;;13.80;;
55931;SDS011;41837;55.700;37.984;2022-10-15T13:24:49;27.70;;;12.88;;
55931;SDS011;41837;55.700;37.984;2022-10-15T13:27:20;44.47;;;13.52;;
55931;SDS011;41837;55.700;37.984;2022-10-15T13:32:20;33.53;;;13.88;;
55931;SDS011;41837;55.700;37.984;2022-10-15T13:34:46;32.25;;;13.25;;
55931;SDS011;41837;55.700;37.984;2022-10-15T13:37:16;34.65;;;12.73;;
55931;SDS011;41837;55.700;37.984;2022-10-15T13:39:43;34.33;;;14.23;;
55931;SDS011;41837;55.700;37.984;2022-10-15T13:42:16;31.63;;;15.13;;
55931;SDS011;41837;55.700;37.984;2022-10-15T13:44:43;29.98;;;14.35;;
55931;SDS011;41837;55.700;37.984;2022-10-15T13:47:22;32.53;;;14.13;;
55931;SDS011;41837;55.700;37.984;2022-10-15T13:49:49;38.78;;;14.68;;
55931;SDS011;41837;55.700;37.984;2022-10-15T13:52:15;41.67;;;17.98;;
55931;SDS011;41837;55.700;37.984;2022-10-15T13:54:43;44.25;;;20.65;;
55931;SDS011;41837;55.700;37.984;2022-10-15T13:57:10;48.90;;;23.02;;
55931;SDS011;41837;55.700;37.984;2022-10-15T13:59:42;55.33;;;23.17;;
55931;SDS011;41837;55.700;37.984;2022-10-15T14:02:09;47.70;;;22.00;;
55931;SDS011;41837;55.700;37.984;2022-10-15T14:04:36;50.92;;;19.40;;
55931;SDS011;41837;55.700;37.984;2022-10-15T14:07:22;53.58;;;18.17;;
55931;SDS011;41837;55.700;37.984;2022-10-15T14:09:51;45.00;;;19.98;;
55931;SDS011;41837;55.700;37.984;2022-10-15T14:12:17;47.70;;;19.50;;
55931;SDS011;41837;55.700;37.984;2022-10-15T14:14:45;41.15;;;19.20;;
55931;SDS011;41837;55.700;37.984;2022-10-15T14:17:24;44.03;;;19.40;;
55931;SDS011;41837;55.700;37.984;2022-10-15T14:19:55;45.53;;;21.42;;
55931;SDS011;41837;55.700;37.984;2022-10-15T14:22:23;49.10;;;21.77;;
55931;SDS011;41837;55.700;37.984;2022-10-15T14:24:52;51.15;;;22.48;;
55931;SDS011;41837;55.700;37.984;2022-10-15T14:27:20;58.00;;;24.02;;
55931;SDS011;41837;55.700;37.984;2022-10-15T14:29:47;47.58;;;21.70;;
55931;SDS011;41837;55.700;37.984;2022-10-15T14:32:27;48.85;;;22.20;;
55931;SDS011;41837;55.700;37.984;2022-10-15T14:34:55;45.53;;;21.40;;
55931;SDS011;41837;55.700;37.984;2022-10-15T14:42:33;55.58;;;24.13;;
55931;SDS011;41837;55.700;37.984;2022-10-15T14:45:09;67.45;;;29.42;;
55931;SDS011;41837;55.700;37.984;2022-10-15T14:47:37;78.57;;;31.00;;
55931;SDS011;41837;55.700;37.984;2022-10-15T14:50:03;77.55;;;31.48;;
55931;SDS011;41837;55.700;37.984;2022-10-15T14:52:31;65.28;;;30.15;;
55931;SDS011;41837;55.700;37.984;2022-10-15T14:55:02;60.95;;;26.85;;
55931;SDS011;41837;55.700;37.984;2022-10-15T14:57:34;63.53;;;25.65;;
55931;SDS011;41837;55.700;37.984;2022-10-15T15:00:03;63.65;;;27.98;;
55931;SDS011;41837;55.700;37.984;2022-10-15T15:02:29;52.72;;;25.00;;
55931;SDS011;41837;55.700;37.984;2022-10-15T15:07:38;58.00;;;25.30;;
55931;SDS011;41837;55.700;37.984;2022-10-15T15:10:05;53.03;;;24.05;;
55931;SDS011;41837;55.700;37.984;2022-10-15T15:12:32;62.00;;;26.30;;
55931;SDS011;41837;55.700;37.984;2022-10-15T15:14:59;59.08;;;27.75;;
55931;SDS011;41837;55.700;37.984;2022-10-15T15:17:26;59.13;;;27.45;;
55931;SDS011;41837;55.700;37.984;2022-10-15T15:19:53;60.40;;;27.95;;
55931;SDS011;41837;55.700;37.984;2022-10-15T15:22:30;60.67;;;26.35;;
55931;SDS011;41837;55.700;37.984;2022-10-15T15:24:57;69.43;;;24.55;;
55931;SDS011;41837;55.700;37.984;2022-10-15T15:27:25;55.00;;;22.38;;
55931;SDS011;41837;55.700;37.984;2022-10-15T15:29:52;45.60;;;21.20;;
55931;SDS011;41837;55.700;37.984;2022-10-15T15:32:18;59.67;;;24.38;;
55931;SDS011;41837;55.700;37.984;2022-10-15T15:34:45;55.70;;;25.00;;
55931;SDS011;41837;55.700;37.984;2022-10-15T15:37:21;59.85;;;26.10;;
55931;SDS011;41837;55.700;37.984;2022-10-15T15:39:48;80.68;;;33.15;;
55931;SDS011;41837;55.700;37.984;2022-10-15T15:42:15;77.85;;;34.70;;
55931;SDS011;41837;55.700;37.984;2022-10-15T15:44:41;90.63;;;38.03;;
55931;SDS011;41837;55.700;37.984;2022-10-15T15:47:07;108.07;;;44.88;;
55931;SDS011;41837;55.700;37.984;2022-10-15T15:49:33;140.38;;;53.65;;
55931;SDS011;41837;55.700;37.984;2022-10-15T15:51:59;147.13;;;60.58;;
55931;SDS011;41837;55.700;37.984;2022-10-15T15:54:26;195.27;;;82.95;;
55931;SDS011;41837;55.700;37.984;2022-10-15T15:56:52;223.25;;;96.22;;
55931;SDS011;41837;55.700;37.984;2022-10-15T15:59:18;170.07;;;68.30;;
55931;SDS011;41837;55.700;37.984;2022-10-15T16:01:44;146.52;;;60.60;;
55931;SDS011;41837;55.700;37.984;2022-10-15T16:04:12;153.73;;;65.63;;
55931;SDS011;41837;55.700;37.984;2022-10-15T16:06:40;137.55;;;57.88;;
55931;SDS011;41837;55.700;37.984;2022-10-15T16:09:07;171.55;;;74.90;;
55931;SDS011;41837;55.700;37.984;2022-10-15T16:11:36;172.13;;;78.03;;
55931;SDS011;41837;55.700;37.984;2022-10-15T16:14:03;173.27;;;76.05;;
55931;SDS011;41837;55.700;37.984;2022-10-15T16:16:28;144.70;;;65.50;;
55931;SDS011;41837;55.700;37.984;2022-10-15T16:18:55;134.40;;;58.95;;
55931;SDS011;41837;55.700;37.984;2022-10-15T16:21:24;140.05;;;57.42;;
55931;SDS011;41837;55.700;37.984;2022-10-15T16:23:52;126.07;;;51.97;;